This is the latest recevied weather packets stored in our database for station/object N1OTX. If no packets are shown the sender has not sent any weather packets the latest 10 day(s).
| Time | Temp. | Humidity | Pressure | Rain* | Wind** | Luminosity | Snow |
|---|---|---|---|---|---|---|---|
| 1777833329 | 11.67° C | 45% | 1005.9 hPa | 0 mm | - | 366 W/m² | - |
| 1777831230 | 10.56° C | 50% | 1006.1 hPa | 0 mm | - | 216 W/m² | - |
| 1777830330 | 11.11° C | 48% | 1006 hPa | 0 mm | - | 287 W/m² | - |
| 1777828529 | 10.56° C | 47% | 1006 hPa | 0 mm | - | 369 W/m² | - |
| 1777828229 | 10.56° C | 46% | 1006 hPa | 0 mm | - | 423 W/m² | - |
| 1777825830 | 9.44° C | 55% | 1006 hPa | 0 mm | - | 137 W/m² | - |
| 1777824331 | 8.89° C | 64% | 1006.1 hPa | 0 mm | - | 227 W/m² | - |
| 1777823729 | 8.33° C | 66% | 1006 hPa | 0 mm | - | 207 W/m² | - |
| 1777822530 | 8.33° C | 69% | 1006.1 hPa | 0 mm | - | 243 W/m² | - |
| 1777821630 | 8.33° C | 70% | 1006.2 hPa | 0 mm | - | 226 W/m² | - |
| 1777818629 | 6.67° C | 83% | 1006.2 hPa | 0 mm | - | 86 W/m² | - |
| 1777817730 | 7.22° C | 79% | 1006.3 hPa | 0 mm | - | 121 W/m² | - |
| 1777816870 | 6.67° C | 81% | 1006.3 hPa | 0 mm | - | 186 W/m² | - |
| 1777814751 | 6.67° C | 79% | 1006.5 hPa | 0 mm | - | 112 W/m² | - |
| 1777814130 | 6.67° C | 82% | 1006.5 hPa | 0 mm | - | 163 W/m² | - |
| 1777813850 | 6.67° C | 82% | 1006.6 hPa | 0 mm | - | 80 W/m² | - |
| 1777812330 | 6.67° C | 77% | 1006.5 hPa | 0 mm | - | 127 W/m² | - |
| 1777812029 | 6.67° C | 78% | 1006.5 hPa | 0 mm | - | 138 W/m² | - |
| 1777811129 | 6.67° C | 77% | 1006.6 hPa | 0 mm | - | 66 W/m² | - |
| 1777807230 | 5.56° C | 80% | 1007 hPa | 0 mm | - | 63 W/m² | - |
| 1777803929 | 6.11° C | 81% | 1006.9 hPa | 0 mm | - | 13 W/m² | - |
| 1777803370 | 6.11° C | 81% | 1006.9 hPa | 0 mm | - | 11 W/m² | - |
| 1777802729 | 6.11° C | 81% | 1007 hPa | 0 mm | - | 9 W/m² | - |
| 1777802131 | 6.11° C | 80% | 1007.1 hPa | 0 mm | - | 6 W/m² | - |
| 1777800930 | 6.11° C | 81% | 1007 hPa | 0 mm | - | 1 W/m² | - |
* Rain latest hour (hover to see other rain measurements)
** Current wind speed in m/s (hover to see current wind gust speed)